sensor_id;sensor_type;location;lat;lon;timestamp;P1;durP1;ratioP1;P2;durP2;ratioP2
71104;SDS011;58760;48.716;8.962;2022-07-23T00:03:14;5.90;;;3.30;;
71104;SDS011;58760;48.716;8.962;2022-07-23T00:08:05;5.87;;;3.00;;
71104;SDS011;58760;48.716;8.962;2022-07-23T00:10:31;11.32;;;3.50;;
71104;SDS011;58760;48.716;8.962;2022-07-23T00:15:22;7.03;;;3.30;;
71104;SDS011;58760;48.716;8.962;2022-07-23T00:20:13;6.07;;;3.13;;
71104;SDS011;58760;48.716;8.962;2022-07-23T00:25:17;5.88;;;3.25;;
71104;SDS011;58760;48.716;8.962;2022-07-23T00:27:44;5.25;;;3.40;;
71104;SDS011;58760;48.716;8.962;2022-07-23T00:32:51;6.32;;;3.42;;
71104;SDS011;58760;48.716;8.962;2022-07-23T00:35:24;7.53;;;3.35;;
71104;SDS011;58760;48.716;8.962;2022-07-23T00:37:51;6.32;;;3.42;;
71104;SDS011;58760;48.716;8.962;2022-07-23T00:42:42;6.28;;;3.05;;
71104;SDS011;58760;48.716;8.962;2022-07-23T00:45:08;6.05;;;2.90;;
71104;SDS011;58760;48.716;8.962;2022-07-23T00:47:34;6.65;;;3.13;;
71104;SDS011;58760;48.716;8.962;2022-07-23T00:50:00;5.22;;;3.00;;
71104;SDS011;58760;48.716;8.962;2022-07-23T00:54:51;5.75;;;3.10;;
71104;SDS011;58760;48.716;8.962;2022-07-23T00:59:42;5.57;;;3.08;;
71104;SDS011;58760;48.716;8.962;2022-07-23T01:02:08;7.07;;;3.05;;
71104;SDS011;58760;48.716;8.962;2022-07-23T01:06:59;6.88;;;3.00;;
71104;SDS011;58760;48.716;8.962;2022-07-23T01:11:51;4.90;;;2.80;;
71104;SDS011;58760;48.716;8.962;2022-07-23T01:16:43;5.97;;;3.28;;
71104;SDS011;58760;48.716;8.962;2022-07-23T01:19:10;4.97;;;2.70;;
71104;SDS011;58760;48.716;8.962;2022-07-23T01:24:02;5.70;;;3.25;;
71104;SDS011;58760;48.716;8.962;2022-07-23T01:28:52;5.88;;;3.13;;
71104;SDS011;58760;48.716;8.962;2022-07-23T01:33:44;7.88;;;3.08;;
71104;SDS011;58760;48.716;8.962;2022-07-23T01:38:34;6.78;;;3.35;;
71104;SDS011;58760;48.716;8.962;2022-07-23T01:43:25;5.85;;;3.38;;
71104;SDS011;58760;48.716;8.962;2022-07-23T01:48:16;10.93;;;3.75;;
71104;SDS011;58760;48.716;8.962;2022-07-23T01:53:07;6.28;;;3.30;;
71104;SDS011;58760;48.716;8.962;2022-07-23T01:55:32;8.90;;;3.53;;
71104;SDS011;58760;48.716;8.962;2022-07-23T01:57:57;7.05;;;3.50;;
71104;SDS011;58760;48.716;8.962;2022-07-23T02:02:48;5.70;;;3.40;;
71104;SDS011;58760;48.716;8.962;2022-07-23T02:05:14;5.78;;;3.13;;
71104;SDS011;58760;48.716;8.962;2022-07-23T02:10:05;5.78;;;3.38;;
71104;SDS011;58760;48.716;8.962;2022-07-23T02:14:56;6.45;;;3.30;;
71104;SDS011;58760;48.716;8.962;2022-07-23T02:17:21;5.88;;;3.20;;
71104;SDS011;58760;48.716;8.962;2022-07-23T02:22:12;10.13;;;3.90;;
71104;SDS011;58760;48.716;8.962;2022-07-23T02:24:37;6.85;;;3.75;;
71104;SDS011;58760;48.716;8.962;2022-07-23T02:27:02;7.13;;;3.65;;
71104;SDS011;58760;48.716;8.962;2022-07-23T02:31:53;7.05;;;3.70;;
71104;SDS011;58760;48.716;8.962;2022-07-23T02:34:19;6.97;;;3.70;;
71104;SDS011;58760;48.716;8.962;2022-07-23T02:36:44;6.30;;;3.38;;
71104;SDS011;58760;48.716;8.962;2022-07-23T02:39:09;6.10;;;3.00;;
71104;SDS011;58760;48.716;8.962;2022-07-23T02:44:00;6.93;;;3.50;;
71104;SDS011;58760;48.716;8.962;2022-07-23T02:46:26;7.25;;;3.35;;
71104;SDS011;58760;48.716;8.962;2022-07-23T02:48:51;7.85;;;3.53;;
71104;SDS011;58760;48.716;8.962;2022-07-23T02:51:17;6.70;;;3.60;;
71104;SDS011;58760;48.716;8.962;2022-07-23T02:53:42;6.50;;;3.35;;
71104;SDS011;58760;48.716;8.962;2022-07-23T02:56:07;9.65;;;3.47;;
71104;SDS011;58760;48.716;8.962;2022-07-23T02:58:33;5.57;;;3.25;;
71104;SDS011;58760;48.716;8.962;2022-07-23T03:00:59;6.40;;;3.78;;
71104;SDS011;58760;48.716;8.962;2022-07-23T03:03:24;6.53;;;3.40;;
71104;SDS011;58760;48.716;8.962;2022-07-23T03:05:49;6.85;;;3.28;;
71104;SDS011;58760;48.716;8.962;2022-07-23T03:08:15;6.40;;;3.60;;
71104;SDS011;58760;48.716;8.962;2022-07-23T03:10:40;6.75;;;3.60;;
71104;SDS011;58760;48.716;8.962;2022-07-23T03:13:06;8.65;;;3.88;;
71104;SDS011;58760;48.716;8.962;2022-07-23T03:15:31;6.28;;;3.50;;
71104;SDS011;58760;48.716;8.962;2022-07-23T03:17:56;6.78;;;3.90;;
71104;SDS011;58760;48.716;8.962;2022-07-23T03:20:22;6.32;;;3.53;;
71104;SDS011;58760;48.716;8.962;2022-07-23T03:22:47;9.00;;;3.78;;
71104;SDS011;58760;48.716;8.962;2022-07-23T03:25:12;7.07;;;3.67;;
71104;SDS011;58760;48.716;8.962;2022-07-23T03:27:38;6.38;;;3.58;;
71104;SDS011;58760;48.716;8.962;2022-07-23T03:30:03;7.10;;;3.60;;
71104;SDS011;58760;48.716;8.962;2022-07-23T03:32:29;6.78;;;3.63;;
71104;SDS011;58760;48.716;8.962;2022-07-23T03:34:56;6.13;;;3.45;;
71104;SDS011;58760;48.716;8.962;2022-07-23T03:39:47;8.43;;;3.42;;
71104;SDS011;58760;48.716;8.962;2022-07-23T03:44:38;8.07;;;3.95;;
71104;SDS011;58760;48.716;8.962;2022-07-23T03:47:03;6.53;;;3.55;;
71104;SDS011;58760;48.716;8.962;2022-07-23T03:49:30;5.78;;;3.30;;
71104;SDS011;58760;48.716;8.962;2022-07-23T03:54:21;6.45;;;3.63;;
71104;SDS011;58760;48.716;8.962;2022-07-23T03:59:11;6.57;;;3.70;;
71104;SDS011;58760;48.716;8.962;2022-07-23T04:01:37;6.72;;;3.50;;
71104;SDS011;58760;48.716;8.962;2022-07-23T04:04:02;5.82;;;3.30;;
71104;SDS011;58760;48.716;8.962;2022-07-23T04:08:54;6.57;;;3.28;;
71104;SDS011;58760;48.716;8.962;2022-07-23T04:13:44;6.80;;;3.72;;
71104;SDS011;58760;48.716;8.962;2022-07-23T04:16:10;6.03;;;3.67;;
71104;SDS011;58760;48.716;8.962;2022-07-23T04:18:35;6.20;;;3.63;;
71104;SDS011;58760;48.716;8.962;2022-07-23T04:21:01;6.10;;;3.67;;
71104;SDS011;58760;48.716;8.962;2022-07-23T04:23:26;7.70;;;3.80;;
71104;SDS011;58760;48.716;8.962;2022-07-23T04:25:51;8.20;;;3.85;;
71104;SDS011;58760;48.716;8.962;2022-07-23T04:28:17;6.57;;;3.78;;
71104;SDS011;58760;48.716;8.962;2022-07-23T04:30:42;7.68;;;4.00;;
71104;SDS011;58760;48.716;8.962;2022-07-23T04:33:07;5.90;;;3.47;;
71104;SDS011;58760;48.716;8.962;2022-07-23T04:35:33;6.68;;;3.92;;
71104;SDS011;58760;48.716;8.962;2022-07-23T04:37:59;7.80;;;3.42;;
71104;SDS011;58760;48.716;8.962;2022-07-23T04:40:25;6.53;;;3.55;;
71104;SDS011;58760;48.716;8.962;2022-07-23T04:45:16;7.18;;;3.80;;
71104;SDS011;58760;48.716;8.962;2022-07-23T04:47:41;7.75;;;3.40;;
71104;SDS011;58760;48.716;8.962;2022-07-23T04:50:07;8.95;;;3.88;;
71104;SDS011;58760;48.716;8.962;2022-07-23T04:52:32;8.30;;;3.75;;
71104;SDS011;58760;48.716;8.962;2022-07-23T04:54:58;6.53;;;3.72;;
71104;SDS011;58760;48.716;8.962;2022-07-23T04:57:23;6.40;;;3.60;;
71104;SDS011;58760;48.716;8.962;2022-07-23T04:59:49;6.47;;;3.65;;
71104;SDS011;58760;48.716;8.962;2022-07-23T05:02:14;6.80;;;4.05;;
71104;SDS011;58760;48.716;8.962;2022-07-23T05:04:39;7.55;;;3.88;;
71104;SDS011;58760;48.716;8.962;2022-07-23T05:07:05;6.50;;;3.88;;
71104;SDS011;58760;48.716;8.962;2022-07-23T05:09:30;6.97;;;3.88;;
71104;SDS011;58760;48.716;8.962;2022-07-23T05:11:56;7.88;;;3.83;;
71104;SDS011;58760;48.716;8.962;2022-07-23T05:14:21;7.10;;;3.83;;
71104;SDS011;58760;48.716;8.962;2022-07-23T05:16:46;6.97;;;3.92;;
71104;SDS011;58760;48.716;8.962;2022-07-23T05:19:12;7.57;;;4.05;;
71104;SDS011;58760;48.716;8.962;2022-07-23T05:21:37;6.70;;;3.90;;
71104;SDS011;58760;48.716;8.962;2022-07-23T05:24:03;7.35;;;4.25;;
71104;SDS011;58760;48.716;8.962;2022-07-23T05:26:28;6.60;;;3.80;;
71104;SDS011;58760;48.716;8.962;2022-07-23T05:28:54;6.10;;;3.45;;
71104;SDS011;58760;48.716;8.962;2022-07-23T05:31:19;6.78;;;3.35;;
71104;SDS011;58760;48.716;8.962;2022-07-23T05:33:44;8.52;;;3.67;;
71104;SDS011;58760;48.716;8.962;2022-07-23T05:36:10;6.70;;;3.58;;
71104;SDS011;58760;48.716;8.962;2022-07-23T05:41:01;6.75;;;3.58;;
71104;SDS011;58760;48.716;8.962;2022-07-23T05:43:27;6.70;;;3.80;;
71104;SDS011;58760;48.716;8.962;2022-07-23T05:48:18;7.97;;;3.80;;
71104;SDS011;58760;48.716;8.962;2022-07-23T05:50:44;9.52;;;4.10;;
71104;SDS011;58760;48.716;8.962;2022-07-23T05:53:09;6.18;;;3.47;;
71104;SDS011;58760;48.716;8.962;2022-07-23T05:55:34;7.88;;;3.63;;
71104;SDS011;58760;48.716;8.962;2022-07-23T06:00:25;7.50;;;4.03;;
71104;SDS011;58760;48.716;8.962;2022-07-23T06:02:51;7.82;;;3.85;;
71104;SDS011;58760;48.716;8.962;2022-07-23T06:05:17;6.72;;;4.10;;
71104;SDS011;58760;48.716;8.962;2022-07-23T06:07:42;6.78;;;4.00;;
71104;SDS011;58760;48.716;8.962;2022-07-23T06:10:08;7.05;;;3.63;;
71104;SDS011;58760;48.716;8.962;2022-07-23T06:14:59;7.22;;;4.10;;
71104;SDS011;58760;48.716;8.962;2022-07-23T06:19:50;7.50;;;3.97;;
71104;SDS011;58760;48.716;8.962;2022-07-23T06:24:40;7.22;;;4.32;;
71104;SDS011;58760;48.716;8.962;2022-07-23T06:29:31;7.70;;;4.25;;
71104;SDS011;58760;48.716;8.962;2022-07-23T06:34:22;6.97;;;3.60;;
71104;SDS011;58760;48.716;8.962;2022-07-23T06:39:12;7.85;;;4.20;;
71104;SDS011;58760;48.716;8.962;2022-07-23T06:41:38;7.78;;;4.07;;
71104;SDS011;58760;48.716;8.962;2022-07-23T06:46:29;6.70;;;3.78;;
71104;SDS011;58760;48.716;8.962;2022-07-23T06:51:20;7.55;;;3.90;;
71104;SDS011;58760;48.716;8.962;2022-07-23T06:53:46;8.63;;;4.13;;
71104;SDS011;58760;48.716;8.962;2022-07-23T06:58:37;6.22;;;3.70;;
71104;SDS011;58760;48.716;8.962;2022-07-23T07:03:27;6.78;;;4.20;;
71104;SDS011;58760;48.716;8.962;2022-07-23T07:08:18;8.02;;;4.40;;
71104;SDS011;58760;48.716;8.962;2022-07-23T07:13:09;8.45;;;3.95;;
71104;SDS011;58760;48.716;8.962;2022-07-23T07:15:34;10.20;;;4.38;;
71104;SDS011;58760;48.716;8.962;2022-07-23T07:20:25;6.85;;;3.80;;
71104;SDS011;58760;48.716;8.962;2022-07-23T07:25:16;6.03;;;3.83;;
71104;SDS011;58760;48.716;8.962;2022-07-23T07:27:41;7.45;;;3.78;;
71104;SDS011;58760;48.716;8.962;2022-07-23T07:30:09;6.50;;;3.67;;
71104;SDS011;58760;48.716;8.962;2022-07-23T07:32:35;7.78;;;4.00;;
71104;SDS011;58760;48.716;8.962;2022-07-23T07:35:02;6.63;;;3.83;;
71104;SDS011;58760;48.716;8.962;2022-07-23T07:37:29;12.05;;;4.25;;
71104;SDS011;58760;48.716;8.962;2022-07-23T07:39:54;8.45;;;3.90;;
71104;SDS011;58760;48.716;8.962;2022-07-23T07:42:20;9.52;;;3.92;;
71104;SDS011;58760;48.716;8.962;2022-07-23T07:44:45;8.25;;;3.78;;
71104;SDS011;58760;48.716;8.962;2022-07-23T07:49:36;8.67;;;3.77;;
71104;SDS011;58760;48.716;8.962;2022-07-23T07:54:27;7.65;;;3.65;;
71104;SDS011;58760;48.716;8.962;2022-07-23T07:59:18;6.50;;;3.88;;
71104;SDS011;58760;48.716;8.962;2022-07-23T08:04:08;8.38;;;3.78;;
71104;SDS011;58760;48.716;8.962;2022-07-23T08:08:59;6.70;;;3.75;;
71104;SDS011;58760;48.716;8.962;2022-07-23T08:13:50;8.05;;;4.00;;
71104;SDS011;58760;48.716;8.962;2022-07-23T08:18:40;7.80;;;4.10;;
71104;SDS011;58760;48.716;8.962;2022-07-23T08:23:31;7.18;;;3.80;;
71104;SDS011;58760;48.716;8.962;2022-07-23T08:25:57;8.73;;;4.20;;
71104;SDS011;58760;48.716;8.962;2022-07-23T08:28:22;6.93;;;4.20;;
71104;SDS011;58760;48.716;8.962;2022-07-23T08:33:14;9.65;;;3.90;;
71104;SDS011;58760;48.716;8.962;2022-07-23T08:35:48;7.13;;;3.40;;
71104;SDS011;58760;48.716;8.962;2022-07-23T08:38:15;8.45;;;4.07;;
71104;SDS011;58760;48.716;8.962;2022-07-23T08:40:43;7.13;;;3.92;;
71104;SDS011;58760;48.716;8.962;2022-07-23T08:43:11;10.20;;;4.20;;
71104;SDS011;58760;48.716;8.962;2022-07-23T08:45:39;6.85;;;3.83;;
71104;SDS011;58760;48.716;8.962;2022-07-23T08:48:19;9.63;;;4.18;;
71104;SDS011;58760;48.716;8.962;2022-07-23T08:50:50;6.50;;;3.60;;
71104;SDS011;58760;48.716;8.962;2022-07-23T08:53:18;7.05;;;3.53;;
71104;SDS011;58760;48.716;8.962;2022-07-23T08:55:49;8.35;;;3.90;;
71104;SDS011;58760;48.716;8.962;2022-07-23T08:58:16;8.20;;;3.97;;
71104;SDS011;58760;48.716;8.962;2022-07-23T09:00:42;8.13;;;3.88;;
71104;SDS011;58760;48.716;8.962;2022-07-23T09:05:39;7.07;;;3.45;;
71104;SDS011;58760;48.716;8.962;2022-07-23T09:10:33;7.32;;;3.70;;
71104;SDS011;58760;48.716;8.962;2022-07-23T09:13:28;6.75;;;3.60;;
71104;SDS011;58760;48.716;8.962;2022-07-23T09:15:57;9.07;;;3.80;;
71104;SDS011;58760;48.716;8.962;2022-07-23T09:18:48;6.90;;;3.70;;
71104;SDS011;58760;48.716;8.962;2022-07-23T09:21:25;6.70;;;3.97;;
71104;SDS011;58760;48.716;8.962;2022-07-23T09:24:04;6.88;;;3.72;;
71104;SDS011;58760;48.716;8.962;2022-07-23T09:26:38;6.57;;;3.55;;
71104;SDS011;58760;48.716;8.962;2022-07-23T09:36:45;5.63;;;3.17;;
71104;SDS011;58760;48.716;8.962;2022-07-23T09:39:11;6.72;;;4.00;;
71104;SDS011;58760;48.716;8.962;2022-07-23T09:41:42;6.90;;;3.95;;
71104;SDS011;58760;48.716;8.962;2022-07-23T09:44:16;6.10;;;3.50;;
71104;SDS011;58760;48.716;8.962;2022-07-23T09:46:44;6.90;;;3.78;;
71104;SDS011;58760;48.716;8.962;2022-07-23T09:49:22;7.00;;;3.65;;
71104;SDS011;58760;48.716;8.962;2022-07-23T09:51:49;6.80;;;3.80;;
71104;SDS011;58760;48.716;8.962;2022-07-23T09:54:23;8.15;;;3.83;;
71104;SDS011;58760;48.716;8.962;2022-07-23T09:56:51;6.63;;;3.67;;
71104;SDS011;58760;48.716;8.962;2022-07-23T09:59:17;7.10;;;3.70;;
71104;SDS011;58760;48.716;8.962;2022-07-23T10:01:43;6.78;;;3.60;;
71104;SDS011;58760;48.716;8.962;2022-07-23T10:04:10;8.48;;;3.75;;
71104;SDS011;58760;48.716;8.962;2022-07-23T10:06:38;5.90;;;3.42;;
71104;SDS011;58760;48.716;8.962;2022-07-23T10:09:05;8.50;;;3.95;;
71104;SDS011;58760;48.716;8.962;2022-07-23T10:11:30;8.63;;;3.92;;
71104;SDS011;58760;48.716;8.962;2022-07-23T10:13:58;6.10;;;3.90;;
71104;SDS011;58760;48.716;8.962;2022-07-23T10:16:25;7.57;;;4.30;;
71104;SDS011;58760;48.716;8.962;2022-07-23T10:18:51;5.82;;;3.35;;
71104;SDS011;58760;48.716;8.962;2022-07-23T10:22:00;8.98;;;3.88;;
71104;SDS011;58760;48.716;8.962;2022-07-23T10:29:51;7.22;;;3.53;;
71104;SDS011;58760;48.716;8.962;2022-07-23T10:35:22;10.43;;;3.78;;
71104;SDS011;58760;48.716;8.962;2022-07-23T10:41:00;6.32;;;3.55;;
71104;SDS011;58760;48.716;8.962;2022-07-23T10:43:27;6.40;;;3.60;;
71104;SDS011;58760;48.716;8.962;2022-07-23T10:45:53;8.02;;;3.90;;
71104;SDS011;58760;48.716;8.962;2022-07-23T10:48:20;6.75;;;3.50;;
71104;SDS011;58760;48.716;8.962;2022-07-23T10:51:10;7.28;;;3.40;;
71104;SDS011;58760;48.716;8.962;2022-07-23T10:56:17;5.72;;;3.35;;
71104;SDS011;58760;48.716;8.962;2022-07-23T10:59:03;7.63;;;3.80;;
71104;SDS011;58760;48.716;8.962;2022-07-23T11:01:38;5.65;;;3.25;;
71104;SDS011;58760;48.716;8.962;2022-07-23T11:04:05;6.75;;;4.00;;
71104;SDS011;58760;48.716;8.962;2022-07-23T11:12:48;6.45;;;3.97;;
71104;SDS011;58760;48.716;8.962;2022-07-23T11:17:26;5.75;;;3.45;;
71104;SDS011;58760;48.716;8.962;2022-07-23T11:22:55;7.90;;;3.78;;
71104;SDS011;58760;48.716;8.962;2022-07-23T11:27:47;6.63;;;3.75;;
71104;SDS011;58760;48.716;8.962;2022-07-23T11:32:51;6.40;;;3.53;;
71104;SDS011;58760;48.716;8.962;2022-07-23T11:35:26;8.02;;;4.53;;
71104;SDS011;58760;48.716;8.962;2022-07-23T11:37:53;6.40;;;3.53;;
71104;SDS011;58760;48.716;8.962;2022-07-23T11:40:27;7.38;;;3.80;;
71104;SDS011;58760;48.716;8.962;2022-07-23T11:45:24;6.60;;;3.75;;
71104;SDS011;58760;48.716;8.962;2022-07-23T11:47:54;5.65;;;3.40;;
71104;SDS011;58760;48.716;8.962;2022-07-23T11:50:22;6.63;;;3.90;;
71104;SDS011;58760;48.716;8.962;2022-07-23T11:52:49;6.97;;;3.55;;
71104;SDS011;58760;48.716;8.962;2022-07-23T11:55:15;6.88;;;3.60;;
71104;SDS011;58760;48.716;8.962;2022-07-23T11:57:41;5.72;;;3.67;;
71104;SDS011;58760;48.716;8.962;2022-07-23T12:02:36;7.95;;;3.67;;
71104;SDS011;58760;48.716;8.962;2022-07-23T12:05:03;7.80;;;4.00;;
71104;SDS011;58760;48.716;8.962;2022-07-23T12:10:04;5.88;;;3.50;;
71104;SDS011;58760;48.716;8.962;2022-07-23T12:12:57;6.05;;;3.78;;
71104;SDS011;58760;48.716;8.962;2022-07-23T12:15:26;6.60;;;3.58;;
71104;SDS011;58760;48.716;8.962;2022-07-23T12:17:55;7.75;;;4.03;;
71104;SDS011;58760;48.716;8.962;2022-07-23T12:20:22;13.40;;;3.63;;
71104;SDS011;58760;48.716;8.962;2022-07-23T12:22:52;6.78;;;3.97;;
71104;SDS011;58760;48.716;8.962;2022-07-23T12:25:23;6.43;;;3.80;;
71104;SDS011;58760;48.716;8.962;2022-07-23T12:28:07;6.55;;;3.80;;
71104;SDS011;58760;48.716;8.962;2022-07-23T12:35:43;6.47;;;3.75;;
71104;SDS011;58760;48.716;8.962;2022-07-23T12:38:17;6.43;;;3.50;;
71104;SDS011;58760;48.716;8.962;2022-07-23T12:40:48;6.93;;;3.85;;
71104;SDS011;58760;48.716;8.962;2022-07-23T12:43:25;6.97;;;3.90;;
71104;SDS011;58760;48.716;8.962;2022-07-23T12:46:33;7.60;;;3.80;;
71104;SDS011;58760;48.716;8.962;2022-07-23T12:51:18;8.45;;;4.03;;
71104;SDS011;58760;48.716;8.962;2022-07-23T12:53:47;9.70;;;4.20;;
71104;SDS011;58760;48.716;8.962;2022-07-23T12:56:15;10.48;;;3.92;;
71104;SDS011;58760;48.716;8.962;2022-07-23T12:59:08;6.57;;;3.78;;
71104;SDS011;58760;48.716;8.962;2022-07-23T13:01:42;8.35;;;3.47;;
71104;SDS011;58760;48.716;8.962;2022-07-23T13:06:49;6.00;;;3.70;;
71104;SDS011;58760;48.716;8.962;2022-07-23T13:09:29;11.77;;;4.20;;
71104;SDS011;58760;48.716;8.962;2022-07-23T13:11:56;6.22;;;3.60;;
71104;SDS011;58760;48.716;8.962;2022-07-23T13:14:23;8.55;;;3.65;;
71104;SDS011;58760;48.716;8.962;2022-07-23T13:16:50;7.95;;;3.65;;
71104;SDS011;58760;48.716;8.962;2022-07-23T13:19:16;7.35;;;4.30;;
71104;SDS011;58760;48.716;8.962;2022-07-23T13:21:42;11.02;;;4.25;;
71104;SDS011;58760;48.716;8.962;2022-07-23T13:24:08;8.25;;;3.90;;
71104;SDS011;58760;48.716;8.962;2022-07-23T13:26:36;6.85;;;3.97;;
71104;SDS011;58760;48.716;8.962;2022-07-23T13:29:02;7.15;;;4.18;;
71104;SDS011;58760;48.716;8.962;2022-07-23T13:31:28;8.80;;;4.00;;
71104;SDS011;58760;48.716;8.962;2022-07-23T13:33:53;10.23;;;3.95;;
71104;SDS011;58760;48.716;8.962;2022-07-23T13:36:18;12.13;;;4.03;;
71104;SDS011;58760;48.716;8.962;2022-07-23T13:38:44;11.63;;;4.20;;
71104;SDS011;58760;48.716;8.962;2022-07-23T13:41:09;10.23;;;3.88;;
71104;SDS011;58760;48.716;8.962;2022-07-23T13:43:35;7.20;;;3.60;;
71104;SDS011;58760;48.716;8.962;2022-07-23T13:46:00;9.18;;;3.67;;
71104;SDS011;58760;48.716;8.962;2022-07-23T13:48:26;7.90;;;3.97;;
71104;SDS011;58760;48.716;8.962;2022-07-23T13:50:51;8.07;;;4.40;;
71104;SDS011;58760;48.716;8.962;2022-07-23T13:53:21;8.80;;;4.40;;
71104;SDS011;58760;48.716;8.962;2022-07-23T13:55:49;7.38;;;3.83;;
71104;SDS011;58760;48.716;8.962;2022-07-23T13:58:16;9.68;;;4.70;;
71104;SDS011;58760;48.716;8.962;2022-07-23T14:00:44;10.15;;;3.92;;
71104;SDS011;58760;48.716;8.962;2022-07-23T14:03:12;8.13;;;4.20;;
71104;SDS011;58760;48.716;8.962;2022-07-23T14:05:37;7.22;;;4.10;;
71104;SDS011;58760;48.716;8.962;2022-07-23T14:08:03;7.15;;;3.63;;
71104;SDS011;58760;48.716;8.962;2022-07-23T14:10:29;8.93;;;4.32;;
71104;SDS011;58760;48.716;8.962;2022-07-23T14:12:55;8.18;;;3.97;;
71104;SDS011;58760;48.716;8.962;2022-07-23T14:15:23;8.65;;;4.20;;
71104;SDS011;58760;48.716;8.962;2022-07-23T14:17:49;18.02;;;4.60;;
71104;SDS011;58760;48.716;8.962;2022-07-23T14:20:15;10.80;;;4.30;;
71104;SDS011;58760;48.716;8.962;2022-07-23T14:22:41;8.60;;;3.95;;
71104;SDS011;58760;48.716;8.962;2022-07-23T14:25:07;13.90;;;4.05;;
71104;SDS011;58760;48.716;8.962;2022-07-23T14:27:34;17.70;;;4.93;;
71104;SDS011;58760;48.716;8.962;2022-07-23T14:30:00;7.88;;;3.65;;
71104;SDS011;58760;48.716;8.962;2022-07-23T14:32:26;7.25;;;4.32;;
71104;SDS011;58760;48.716;8.962;2022-07-23T14:34:51;10.57;;;4.13;;
71104;SDS011;58760;48.716;8.962;2022-07-23T14:37:17;8.70;;;4.18;;
71104;SDS011;58760;48.716;8.962;2022-07-23T14:39:44;8.70;;;4.13;;
71104;SDS011;58760;48.716;8.962;2022-07-23T14:42:10;6.38;;;3.40;;
71104;SDS011;58760;48.716;8.962;2022-07-23T14:44:36;7.55;;;3.70;;
71104;SDS011;58760;48.716;8.962;2022-07-23T14:47:03;7.05;;;3.38;;
71104;SDS011;58760;48.716;8.962;2022-07-23T14:49:30;20.50;;;4.40;;
71104;SDS011;58760;48.716;8.962;2022-07-23T14:51:56;9.18;;;3.97;;
71104;SDS011;58760;48.716;8.962;2022-07-23T14:54:22;11.80;;;3.58;;
71104;SDS011;58760;48.716;8.962;2022-07-23T14:56:50;11.77;;;3.55;;
71104;SDS011;58760;48.716;8.962;2022-07-23T14:59:16;14.93;;;4.20;;
71104;SDS011;58760;48.716;8.962;2022-07-23T15:01:41;7.05;;;4.20;;
71104;SDS011;58760;48.716;8.962;2022-07-23T15:04:07;7.28;;;3.80;;
71104;SDS011;58760;48.716;8.962;2022-07-23T15:06:32;6.18;;;3.47;;
71104;SDS011;58760;48.716;8.962;2022-07-23T15:08:58;6.40;;;3.80;;
71104;SDS011;58760;48.716;8.962;2022-07-23T15:11:25;8.05;;;3.95;;
71104;SDS011;58760;48.716;8.962;2022-07-23T15:13:54;8.65;;;3.92;;
71104;SDS011;58760;48.716;8.962;2022-07-23T15:16:19;6.32;;;3.72;;
71104;SDS011;58760;48.716;8.962;2022-07-23T15:18:45;8.88;;;3.97;;
71104;SDS011;58760;48.716;8.962;2022-07-23T15:21:10;9.65;;;3.90;;
71104;SDS011;58760;48.716;8.962;2022-07-23T15:23:39;17.35;;;4.30;;
71104;SDS011;58760;48.716;8.962;2022-07-23T15:26:05;14.32;;;4.60;;
71104;SDS011;58760;48.716;8.962;2022-07-23T15:28:31;16.23;;;5.00;;
71104;SDS011;58760;48.716;8.962;2022-07-23T15:30:56;7.97;;;4.20;;
71104;SDS011;58760;48.716;8.962;2022-07-23T15:33:22;8.40;;;4.20;;
71104;SDS011;58760;48.716;8.962;2022-07-23T15:35:47;6.38;;;3.88;;
71104;SDS011;58760;48.716;8.962;2022-07-23T15:38:13;8.32;;;4.00;;
71104;SDS011;58760;48.716;8.962;2022-07-23T15:40:38;6.85;;;3.72;;
71104;SDS011;58760;48.716;8.962;2022-07-23T15:43:04;8.38;;;4.07;;
71104;SDS011;58760;48.716;8.962;2022-07-23T15:45:30;10.45;;;4.00;;
71104;SDS011;58760;48.716;8.962;2022-07-23T15:47:56;7.82;;;3.95;;
71104;SDS011;58760;48.716;8.962;2022-07-23T15:50:21;7.60;;;4.13;;
71104;SDS011;58760;48.716;8.962;2022-07-23T15:52:47;7.40;;;3.83;;
71104;SDS011;58760;48.716;8.962;2022-07-23T15:55:12;6.97;;;4.22;;
71104;SDS011;58760;48.716;8.962;2022-07-23T15:57:38;10.43;;;4.10;;
71104;SDS011;58760;48.716;8.962;2022-07-23T16:00:04;6.75;;;3.88;;
71104;SDS011;58760;48.716;8.962;2022-07-23T16:02:31;7.25;;;4.40;;
71104;SDS011;58760;48.716;8.962;2022-07-23T16:04:56;7.60;;;4.43;;
71104;SDS011;58760;48.716;8.962;2022-07-23T16:07:22;10.65;;;4.90;;
71104;SDS011;58760;48.716;8.962;2022-07-23T16:09:47;8.30;;;4.28;;
71104;SDS011;58760;48.716;8.962;2022-07-23T16:12:12;7.00;;;4.05;;
71104;SDS011;58760;48.716;8.962;2022-07-23T16:14:38;7.60;;;4.18;;
71104;SDS011;58760;48.716;8.962;2022-07-23T16:17:04;9.88;;;4.60;;
71104;SDS011;58760;48.716;8.962;2022-07-23T16:19:29;6.80;;;3.95;;
71104;SDS011;58760;48.716;8.962;2022-07-23T16:21:55;7.05;;;4.57;;
71104;SDS011;58760;48.716;8.962;2022-07-23T16:24:20;7.28;;;3.97;;
71104;SDS011;58760;48.716;8.962;2022-07-23T16:26:46;8.18;;;4.82;;
71104;SDS011;58760;48.716;8.962;2022-07-23T16:29:11;9.48;;;4.55;;
71104;SDS011;58760;48.716;8.962;2022-07-23T16:31:37;9.85;;;4.47;;
71104;SDS011;58760;48.716;8.962;2022-07-23T16:34:03;9.27;;;4.70;;
71104;SDS011;58760;48.716;8.962;2022-07-23T16:36:28;8.60;;;4.28;;
71104;SDS011;58760;48.716;8.962;2022-07-23T16:38:55;9.63;;;4.68;;
71104;SDS011;58760;48.716;8.962;2022-07-23T16:41:20;9.15;;;4.55;;
71104;SDS011;58760;48.716;8.962;2022-07-23T16:43:46;9.10;;;4.57;;
71104;SDS011;58760;48.716;8.962;2022-07-23T16:46:12;6.82;;;4.40;;
71104;SDS011;58760;48.716;8.962;2022-07-23T16:48:38;8.98;;;4.45;;
71104;SDS011;58760;48.716;8.962;2022-07-23T16:51:03;7.20;;;4.57;;
71104;SDS011;58760;48.716;8.962;2022-07-23T16:53:29;7.45;;;4.50;;
71104;SDS011;58760;48.716;8.962;2022-07-23T16:55:54;9.88;;;4.57;;
71104;SDS011;58760;48.716;8.962;2022-07-23T16:58:20;7.32;;;4.40;;
71104;SDS011;58760;48.716;8.962;2022-07-23T17:00:45;7.40;;;4.65;;
71104;SDS011;58760;48.716;8.962;2022-07-23T17:03:10;9.35;;;4.60;;
71104;SDS011;58760;48.716;8.962;2022-07-23T17:05:36;9.30;;;4.70;;
71104;SDS011;58760;48.716;8.962;2022-07-23T17:08:02;11.15;;;4.43;;
71104;SDS011;58760;48.716;8.962;2022-07-23T17:10:29;10.10;;;4.80;;
71104;SDS011;58760;48.716;8.962;2022-07-23T17:12:55;8.98;;;4.90;;
71104;SDS011;58760;48.716;8.962;2022-07-23T17:15:22;8.63;;;5.03;;
71104;SDS011;58760;48.716;8.962;2022-07-23T17:17:48;8.65;;;4.43;;
71104;SDS011;58760;48.716;8.962;2022-07-23T17:20:13;9.77;;;5.25;;
71104;SDS011;58760;48.716;8.962;2022-07-23T17:22:39;7.75;;;5.07;;
71104;SDS011;58760;48.716;8.962;2022-07-23T17:25:07;9.80;;;4.70;;
71104;SDS011;58760;48.716;8.962;2022-07-23T17:27:36;9.38;;;4.80;;
71104;SDS011;58760;48.716;8.962;2022-07-23T17:30:03;11.52;;;5.25;;
71104;SDS011;58760;48.716;8.962;2022-07-23T17:32:29;7.45;;;4.68;;
71104;SDS011;58760;48.716;8.962;2022-07-23T17:34:55;8.75;;;4.70;;
71104;SDS011;58760;48.716;8.962;2022-07-23T17:37:20;9.35;;;4.80;;
71104;SDS011;58760;48.716;8.962;2022-07-23T17:39:46;7.10;;;4.40;;
71104;SDS011;58760;48.716;8.962;2022-07-23T17:42:12;9.77;;;4.97;;
71104;SDS011;58760;48.716;8.962;2022-07-23T17:44:37;9.38;;;5.07;;
71104;SDS011;58760;48.716;8.962;2022-07-23T17:47:02;8.02;;;4.90;;
71104;SDS011;58760;48.716;8.962;2022-07-23T17:49:28;10.68;;;4.53;;
71104;SDS011;58760;48.716;8.962;2022-07-23T17:51:53;9.45;;;4.85;;
71104;SDS011;58760;48.716;8.962;2022-07-23T17:54:19;8.20;;;4.70;;
71104;SDS011;58760;48.716;8.962;2022-07-23T17:56:44;6.70;;;4.20;;
71104;SDS011;58760;48.716;8.962;2022-07-23T17:59:09;9.23;;;4.50;;
71104;SDS011;58760;48.716;8.962;2022-07-23T18:01:35;8.23;;;4.95;;
71104;SDS011;58760;48.716;8.962;2022-07-23T18:04:01;12.13;;;5.10;;
71104;SDS011;58760;48.716;8.962;2022-07-23T18:06:27;11.20;;;5.13;;